Terminal Aerodrome Forecast
Issued by NWS

Home | Current Version | Previous Version | Text Only | Print | Product List | Glossary On
Versions: 1 2 3 4 5 6 7 8 9 10 11 12 13 14 15 16 17 18 19 20 21 22 23
000
FTUS43 KMKX 061801 AAA
TAFUES
TAF AMD
KUES 061801Z 0618/0718 24006KT 4SM BR OVC015
      TEMPO 0618/0621 2SM -SN BR BKN005
     FM062100 26010G18KT P6SM BKN020
     FM070600 26012KT P6SM SCT100=

USA.gov is the U.S. government's official web portal to all federal, state and local government web resources and services.